createdAt,value
2018-05-03T00:02:25.523Z,96.00
2018-05-03T00:04:54.778Z,95.90
2018-05-03T00:07:24.078Z,96.00
2018-05-03T00:09:53.349Z,96.00
2018-05-03T00:12:22.622Z,96.10
2018-05-03T00:14:51.876Z,96.20
2018-05-03T00:17:21.144Z,96.30
2018-05-03T00:19:51.168Z,96.60
2018-05-03T00:22:21.271Z,96.50
2018-05-03T00:24:50.534Z,96.50
2018-05-03T00:27:19.822Z,96.60
2018-05-03T00:29:49.084Z,96.90
2018-05-03T00:32:18.354Z,96.50
2018-05-03T00:34:49.064Z,96.10
2018-05-03T00:37:18.314Z,96.10
2018-05-03T00:39:47.574Z,96.30
2018-05-03T00:42:16.848Z,95.90
2018-05-03T00:44:46.125Z,95.90
2018-05-03T00:47:15.377Z,96.10
2018-05-03T00:49:44.659Z,96.10
2018-05-03T00:52:13.947Z,96.40
2018-05-03T00:54:50.086Z,96.00
2018-05-03T00:57:19.343Z,96.00
2018-05-03T00:59:49.398Z,96.30
2018-05-03T01:02:18.707Z,96.30
2018-05-03T01:04:48.006Z,96.30
2018-05-03T01:07:17.299Z,96.60
2018-05-03T01:09:46.564Z,95.80
2018-05-03T01:12:15.937Z,96.00
2018-05-03T01:14:45.305Z,95.90
2018-05-03T01:17:15.402Z,95.70
2018-05-03T01:19:44.690Z,95.70
2018-05-03T01:22:14.131Z,95.80
2018-05-03T01:24:43.483Z,95.70
2018-05-03T01:27:12.738Z,96.00
2018-05-03T01:29:42.082Z,96.20
2018-05-03T01:32:11.367Z,96.40
2018-05-03T01:34:40.632Z,96.30
2018-05-03T01:37:09.895Z,96.40
2018-05-03T01:39:39.159Z,96.50
2018-05-03T01:42:08.411Z,96.70
2018-05-03T01:44:37.704Z,96.70
2018-05-03T01:47:07.725Z,96.80
2018-05-03T01:49:37.186Z,96.80
2018-05-03T01:52:06.465Z,97.00
2018-05-03T01:54:35.757Z,97.30
2018-05-03T01:57:05.038Z,97.10
2018-05-03T01:59:35.113Z,97.30
2018-05-03T02:02:04.390Z,97.30
2018-05-03T02:04:33.641Z,97.90
2018-05-03T02:07:03.676Z,98.30
2018-05-03T02:09:33.704Z,98.50
2018-05-03T02:12:02.957Z,98.50
2018-05-03T02:14:32.215Z,98.60
2018-05-03T02:17:01.464Z,98.60
2018-05-03T02:19:31.497Z,98.60
2018-05-03T02:22:00.743Z,98.60
2018-05-03T02:24:29.998Z,98.80
2018-05-03T02:27:00.055Z,99.30
2018-05-03T02:29:29.312Z,99.30
2018-05-03T02:31:59.363Z,99.40
2018-05-03T02:34:28.662Z,99.40
2018-05-03T02:36:58.041Z,99.60
2018-05-03T02:39:28.146Z,99.70
2018-05-03T02:41:57.384Z,99.40
2018-05-03T02:44:26.640Z,99.50
2018-05-03T02:46:55.909Z,99.60
2018-05-03T02:49:25.161Z,99.60
2018-05-03T02:51:55.185Z,99.90
2018-05-03T02:54:24.498Z,99.90
2018-05-03T02:56:53.850Z,99.90
2018-05-03T02:59:41.690Z,99.90
2018-05-03T03:02:16.328Z,99.90
2018-05-03T03:05:09.115Z,99.90
2018-05-03T03:11:29.696Z,99.90
2018-05-03T03:14:17.124Z,99.80
2018-05-03T03:17:09.919Z,99.90
2018-05-03T03:20:07.183Z,99.90
2018-05-03T03:26:38.041Z,99.80
2018-05-03T03:29:30.735Z,99.70
2018-05-03T03:32:17.973Z,99.70
2018-05-03T03:34:48.738Z,99.70
2018-05-03T03:37:35.658Z,99.50
2018-05-03T03:40:25.448Z,99.50
2018-05-03T03:46:01.152Z,98.90
2018-05-03T03:48:30.419Z,98.90
2018-05-03T03:50:59.728Z,98.70
2018-05-03T03:53:29.022Z,98.00
2018-05-03T03:55:58.264Z,98.00
2018-05-03T03:58:28.280Z,97.60
2018-05-03T04:00:58.336Z,97.30
2018-05-03T04:03:27.600Z,96.90
2018-05-03T04:05:57.420Z,95.70
2018-05-03T04:08:26.901Z,95.30
2018-05-03T04:10:56.146Z,94.80
2018-05-03T04:13:25.485Z,93.70
2018-05-03T04:15:54.784Z,93.30
2018-05-03T04:18:41.999Z,92.70
2018-05-03T04:21:29.080Z,92.50
2018-05-03T04:24:17.250Z,91.80
2018-05-03T04:26:46.555Z,91.70
2018-05-03T04:29:15.814Z,91.70
2018-05-03T04:31:45.906Z,91.50
2018-05-03T04:34:15.297Z,91.50
2018-05-03T04:36:44.645Z,91.70
2018-05-03T04:39:14.056Z,91.40
2018-05-03T04:41:44.893Z,91.20
2018-05-03T04:44:14.175Z,91.20
2018-05-03T04:46:44.234Z,91.20
2018-05-03T04:49:13.507Z,91.10
2018-05-03T04:51:43.517Z,91.00
2018-05-03T04:54:12.925Z,91.00
2018-05-03T04:56:42.143Z,90.90
2018-05-03T04:59:11.430Z,91.10
2018-05-03T05:01:40.699Z,90.90
2018-05-03T05:04:10.778Z,91.40
2018-05-03T05:06:40.038Z,91.00
2018-05-03T05:09:10.065Z,91.00
2018-05-03T05:11:39.368Z,91.00
2018-05-03T05:14:08.671Z,91.20
2018-05-03T05:16:37.988Z,91.40
2018-05-03T05:19:07.248Z,91.20
2018-05-03T05:21:37.806Z,91.50
2018-05-03T05:24:07.082Z,91.50
2018-05-03T05:26:37.164Z,91.00
2018-05-03T05:29:06.424Z,91.00
2018-05-03T05:31:35.721Z,90.80
2018-05-03T05:34:04.990Z,90.80
2018-05-03T05:36:35.040Z,90.80
2018-05-03T05:39:04.429Z,90.80
2018-05-03T05:41:34.442Z,90.50
2018-05-03T05:44:06.301Z,90.80
2018-05-03T05:46:35.517Z,90.80
2018-05-03T05:49:04.965Z,90.70
2018-05-03T05:51:34.281Z,86.70
2018-05-03T05:54:04.342Z,77.40
2018-05-03T05:56:33.670Z,77.40
2018-05-03T05:59:03.651Z,71.20
2018-05-03T06:01:32.947Z,71.10
2018-05-03T06:04:03.024Z,65.90
2018-05-03T06:06:32.308Z,65.90
2018-05-03T06:09:01.560Z,62.40
2018-05-03T06:11:30.835Z,61.30
2018-05-03T06:14:00.862Z,58.20
2018-05-03T06:16:30.888Z,57.70
2018-05-03T06:19:00.940Z,56.00
2018-05-03T06:21:30.214Z,55.90
2018-05-03T06:23:59.479Z,57.60
2018-05-03T06:26:28.776Z,60.90
2018-05-03T06:28:58.835Z,71.00
2018-05-03T06:31:28.130Z,70.40
2018-05-03T06:33:58.167Z,71.60
2018-05-03T06:36:27.431Z,71.60
2018-05-03T06:38:57.493Z,67.30
2018-05-03T06:41:26.781Z,67.30
2018-05-03T06:43:56.074Z,65.00
2018-05-03T06:46:25.372Z,63.10
2018-05-03T06:48:54.651Z,59.20
2018-05-03T06:51:24.755Z,57.60
2018-05-03T06:53:53.937Z,57.60
2018-05-03T06:56:23.213Z,55.00
2018-05-03T06:58:52.474Z,54.90
2018-05-03T07:01:22.533Z,53.60
2018-05-03T07:03:51.827Z,53.60
2018-05-03T07:06:21.069Z,54.80
2018-05-03T07:08:51.855Z,52.60
2018-05-03T07:11:21.125Z,52.70
2018-05-03T07:13:51.147Z,52.30
2018-05-03T07:16:21.228Z,56.80
2018-05-03T07:18:50.573Z,56.70
2018-05-03T07:21:19.804Z,60.30
2018-05-03T07:23:49.161Z,63.50
2018-05-03T07:26:18.393Z,64.20
2018-05-03T07:28:47.691Z,57.20
2018-05-03T07:31:17.072Z,53.40
2018-05-03T07:33:46.474Z,51.00
2018-05-03T07:36:17.408Z,47.30
2018-05-03T07:38:46.692Z,47.20
2018-05-03T07:41:16.057Z,47.30
2018-05-03T07:43:45.350Z,47.20
2018-05-03T07:46:14.639Z,48.70
2018-05-03T07:48:43.920Z,48.50
2018-05-03T07:51:13.960Z,45.90
2018-05-03T07:53:43.291Z,45.80
2018-05-03T07:56:12.531Z,43.80
2018-05-03T07:58:41.813Z,43.90
2018-05-03T08:01:11.074Z,45.10
2018-05-03T08:03:40.445Z,44.00
2018-05-03T08:06:09.830Z,44.40
2018-05-03T08:08:39.877Z,47.90
2018-05-03T08:11:09.145Z,47.90
2018-05-03T08:13:39.202Z,52.90
2018-05-03T08:16:08.456Z,52.90
2018-05-03T08:18:38.508Z,57.10
2018-05-03T08:21:07.895Z,57.00
2018-05-03T08:23:41.291Z,60.40
2018-05-03T08:26:10.561Z,60.40
2018-05-03T08:28:40.615Z,61.50
2018-05-03T08:31:10.637Z,62.00
2018-05-03T08:33:39.938Z,61.90
2018-05-03T08:36:09.261Z,62.40
2018-05-03T08:38:38.520Z,62.40
2018-05-03T08:41:14.097Z,62.80
2018-05-03T08:43:43.440Z,62.60
2018-05-03T08:46:12.710Z,59.80
2018-05-03T08:48:42.004Z,60.70
2018-05-03T08:51:11.255Z,60.10
2018-05-03T08:53:41.301Z,59.90
2018-05-03T08:56:11.515Z,59.00
2018-05-03T08:58:40.785Z,58.40
2018-05-03T09:01:10.054Z,57.30
2018-05-03T09:03:39.339Z,56.20
2018-05-03T09:06:08.602Z,52.40
2018-05-03T09:08:38.634Z,46.20
2018-05-03T09:11:07.901Z,46.00
2018-05-03T09:13:37.220Z,46.10
2018-05-03T09:16:07.265Z,41.80
2018-05-03T09:18:36.654Z,41.80
2018-05-03T09:21:05.996Z,39.90
2018-05-03T09:23:35.257Z,39.30
2018-05-03T09:26:04.545Z,35.70
2018-05-03T09:28:34.569Z,33.50
2018-05-03T09:31:04.606Z,36.60
2018-05-03T09:33:33.998Z,36.60
2018-05-03T09:36:03.288Z,36.00
2018-05-03T09:38:32.598Z,36.40
2018-05-03T09:41:02.602Z,34.50
2018-05-03T09:43:32.669Z,35.20
2018-05-03T09:46:01.949Z,35.20
2018-05-03T09:48:31.250Z,31.60
2018-05-03T09:51:00.525Z,31.40
2018-05-03T09:53:29.798Z,31.60
2018-05-03T09:55:59.070Z,29.80
2018-05-03T09:58:28.425Z,30.50
2018-05-03T10:00:57.755Z,33.60
2018-05-03T10:03:30.886Z,31.90
2018-05-03T10:06:00.150Z,31.40
2018-05-03T10:08:29.420Z,33.50
2018-05-03T10:10:58.684Z,32.90
2018-05-03T10:13:27.943Z,32.50
2018-05-03T10:15:57.231Z,33.00
2018-05-03T10:18:26.485Z,33.20
2018-05-03T10:20:56.553Z,32.60
2018-05-03T10:23:25.810Z,32.60
2018-05-03T10:25:55.061Z,32.10
2018-05-03T10:28:24.362Z,35.00
2018-05-03T10:30:53.631Z,34.60
2018-05-03T10:33:23.689Z,33.50
2018-05-03T10:35:53.126Z,33.40
2018-05-03T10:38:22.397Z,32.80
2018-05-03T10:40:51.701Z,33.20
2018-05-03T10:43:20.983Z,33.70
2018-05-03T10:45:50.265Z,33.00
2018-05-03T10:48:19.529Z,32.30
2018-05-03T10:50:48.802Z,31.80
2018-05-03T10:53:18.089Z,31.90
2018-05-03T10:55:47.352Z,31.80
2018-05-03T10:58:17.372Z,31.20
2018-05-03T11:00:46.623Z,31.10
2018-05-03T11:03:15.890Z,30.70
2018-05-03T11:05:45.146Z,32.30
2018-05-03T11:08:14.424Z,34.80
2018-05-03T11:10:43.729Z,38.00
2018-05-03T11:13:13.018Z,38.90
2018-05-03T11:15:42.273Z,41.00
2018-05-03T11:18:11.587Z,42.20
2018-05-03T11:20:40.842Z,39.60
2018-05-03T11:23:10.126Z,39.40
2018-05-03T11:25:39.380Z,39.80
2018-05-03T11:28:08.642Z,39.60
2018-05-03T11:30:37.904Z,40.20
2018-05-03T11:33:07.168Z,42.50
2018-05-03T11:35:36.647Z,41.70
2018-05-03T11:38:07.395Z,42.20
2018-05-03T11:40:37.590Z,42.00
2018-05-03T11:43:08.382Z,42.40
2018-05-03T11:45:37.656Z,42.30
2018-05-03T11:48:07.674Z,42.40
2018-05-03T11:50:36.949Z,42.40
2018-05-03T11:53:06.222Z,42.00
2018-05-03T11:55:35.479Z,44.20
2018-05-03T11:58:04.762Z,41.40
2018-05-03T12:00:34.050Z,44.10
2018-05-03T12:03:03.342Z,41.70
2018-05-03T12:05:34.112Z,42.10
2018-05-03T12:08:04.161Z,41.30
2018-05-03T12:10:33.482Z,41.30
2018-05-03T12:13:02.755Z,42.30
2018-05-03T12:15:32.001Z,43.10
2018-05-03T12:18:01.283Z,42.50
2018-05-03T12:20:30.579Z,41.10
2018-05-03T12:22:59.961Z,42.60
2018-05-03T12:25:29.237Z,41.50
2018-05-03T12:27:58.565Z,41.60
2018-05-03T12:30:27.916Z,41.10
2018-05-03T12:32:57.162Z,42.50
2018-05-03T12:35:26.433Z,41.50
2018-05-03T12:37:56.450Z,42.60
2018-05-03T12:40:25.717Z,42.60
2018-05-03T12:42:55.752Z,42.60
2018-05-03T12:45:25.797Z,43.10
2018-05-03T12:47:55.108Z,43.10
2018-05-03T12:50:24.436Z,44.10
2018-05-03T12:52:53.700Z,41.70
2018-05-03T12:55:23.015Z,43.20
2018-05-03T12:57:52.305Z,42.80
2018-05-03T13:00:21.595Z,43.20
2018-05-03T13:02:50.893Z,43.10
2018-05-03T13:05:20.163Z,42.20
2018-05-03T13:07:49.409Z,41.50
2018-05-03T13:10:18.905Z,42.20
2018-05-03T13:12:48.174Z,43.80
2018-05-03T13:15:18.313Z,42.70
2018-05-03T13:17:49.694Z,42.00
2018-05-03T13:20:19.079Z,42.50
2018-05-03T13:22:48.365Z,42.20
2018-05-03T13:25:17.635Z,42.60
2018-05-03T13:27:47.664Z,43.50
2018-05-03T13:30:16.941Z,43.50
2018-05-03T13:32:46.192Z,43.60
2018-05-03T13:35:15.620Z,42.90
2018-05-03T13:37:44.874Z,42.00
2018-05-03T13:40:15.015Z,43.50
2018-05-03T13:42:44.312Z,43.40
2018-05-03T13:45:13.591Z,43.60
2018-05-03T13:47:44.468Z,43.50
2018-05-03T13:50:13.654Z,43.50
2018-05-03T13:52:42.906Z,43.10
2018-05-03T13:55:12.169Z,44.10
2018-05-03T13:57:42.237Z,43.60
2018-05-03T14:00:11.508Z,42.80
2018-05-03T14:02:40.790Z,42.70
2018-05-03T14:05:10.117Z,42.20
2018-05-03T14:07:39.343Z,43.20
2018-05-03T14:10:09.438Z,42.40
2018-05-03T14:12:38.761Z,42.30
2018-05-03T14:15:08.833Z,44.20
2018-05-03T14:17:38.120Z,44.70
2018-05-03T14:20:07.390Z,42.50
2018-05-03T14:22:37.421Z,42.10
2018-05-03T14:25:06.690Z,42.10
2018-05-03T14:27:36.548Z,43.30
2018-05-03T14:30:05.864Z,43.80
2018-05-03T14:32:35.131Z,42.40
2018-05-03T14:35:05.174Z,43.00
2018-05-03T14:37:34.470Z,43.00
2018-05-03T14:40:03.736Z,42.90
2018-05-03T14:42:32.999Z,41.80
2018-05-03T14:45:02.341Z,40.70
2018-05-03T14:47:31.620Z,42.70
2018-05-03T14:50:00.913Z,41.90
2018-05-03T14:52:30.190Z,42.50
2018-05-03T14:54:59.458Z,41.70
2018-05-03T14:57:28.722Z,43.10
2018-05-03T14:59:58.925Z,41.30
2018-05-03T15:02:28.226Z,41.20
2018-05-03T15:04:57.482Z,41.80
2018-05-03T15:07:26.764Z,41.90
2018-05-03T15:09:56.796Z,42.40
2018-05-03T15:12:26.091Z,42.30
2018-05-03T15:14:56.173Z,40.40
2018-05-03T15:17:25.471Z,40.30
2018-05-03T15:19:54.753Z,40.60
2018-05-03T15:22:24.022Z,39.80
2018-05-03T15:24:53.329Z,41.20
2018-05-03T15:27:22.595Z,41.30
2018-05-03T15:29:51.884Z,40.40
2018-05-03T15:32:21.932Z,40.20
2018-05-03T15:34:51.949Z,41.10
2018-05-03T15:37:21.243Z,41.10
2018-05-03T15:39:50.488Z,40.30
2018-05-03T15:42:19.760Z,40.20
2018-05-03T15:44:49.033Z,40.80
2018-05-03T15:47:19.071Z,40.20
2018-05-03T15:49:48.373Z,40.20
2018-05-03T15:52:17.649Z,40.30
2018-05-03T15:54:46.932Z,40.20
2018-05-03T15:57:16.220Z,40.60
2018-05-03T15:59:45.491Z,40.00
2018-05-03T16:02:14.784Z,40.00
2018-05-03T16:04:44.080Z,40.30
2018-05-03T16:07:13.373Z,41.90
2018-05-03T16:09:42.677Z,42.50
2018-05-03T16:12:12.079Z,42.80
2018-05-03T16:14:42.091Z,42.10
2018-05-03T16:17:11.380Z,42.10
2018-05-03T16:19:40.680Z,43.00
2018-05-03T16:22:09.999Z,42.20
2018-05-03T16:24:39.293Z,41.80
2018-05-03T16:27:08.558Z,41.40
2018-05-03T16:29:38.584Z,42.50
2018-05-03T16:32:08.604Z,42.40
2018-05-03T16:34:38.737Z,44.10
2018-05-03T16:37:07.995Z,44.00
2018-05-03T16:39:37.341Z,43.00
2018-05-03T16:42:06.774Z,42.40
2018-05-03T16:44:36.034Z,42.70
2018-05-03T16:47:05.276Z,43.50
2018-05-03T16:49:34.632Z,43.00
2018-05-03T16:52:04.705Z,43.40
2018-05-03T16:54:34.013Z,43.30
2018-05-03T16:57:03.331Z,44.00
2018-05-03T16:59:32.758Z,43.10
2018-05-03T17:02:02.081Z,45.00
2018-05-03T17:04:31.439Z,45.60
2018-05-03T17:07:01.503Z,46.00
2018-05-03T17:09:30.822Z,46.00
2018-05-03T17:12:00.127Z,45.30
2018-05-03T17:14:29.386Z,45.70
2018-05-03T17:16:58.722Z,45.90
2018-05-03T17:19:29.716Z,47.10
2018-05-03T17:22:00.489Z,48.30
2018-05-03T17:24:29.775Z,48.30
2018-05-03T17:26:59.146Z,48.80
2018-05-03T17:29:29.218Z,50.20
2018-05-03T17:31:58.475Z,50.20
2018-05-03T17:34:27.752Z,50.80
2018-05-03T17:36:57.026Z,51.10
2018-05-03T17:39:26.317Z,52.10
2018-05-03T17:41:55.637Z,52.20
2018-05-03T17:44:24.942Z,52.30
2018-05-03T17:46:54.568Z,52.60
2018-05-03T17:49:24.172Z,53.90
2018-05-03T17:51:53.457Z,55.40
2018-05-03T17:54:23.002Z,56.80
2018-05-03T17:56:54.095Z,57.50
2018-05-03T17:59:23.406Z,54.30
2018-05-03T18:01:52.667Z,54.00
2018-05-03T18:04:22.050Z,54.40
2018-05-03T18:06:52.231Z,52.40
2018-05-03T18:09:21.577Z,52.40
2018-05-03T18:11:51.079Z,51.70
2018-05-03T18:14:22.105Z,53.20
2018-05-03T18:16:53.552Z,52.60
2018-05-03T18:19:22.809Z,52.60
2018-05-03T18:21:52.276Z,52.70
2018-05-03T18:24:21.605Z,52.40
2018-05-03T18:26:51.032Z,54.00
2018-05-03T18:29:20.391Z,54.00
2018-05-03T18:31:49.716Z,53.90
2018-05-03T18:34:20.524Z,54.70
2018-05-03T18:36:49.991Z,53.20
2018-05-03T18:39:23.331Z,53.50
2018-05-03T18:41:52.879Z,53.90
2018-05-03T18:44:22.163Z,53.80
2018-05-03T18:46:51.465Z,54.40
2018-05-03T18:49:20.834Z,56.80
2018-05-03T18:51:50.156Z,57.10
2018-05-03T18:54:19.525Z,56.70
2018-05-03T18:56:48.747Z,57.00
2018-05-03T18:59:18.060Z,56.60
2018-05-03T19:01:47.587Z,57.50
2018-05-03T19:04:16.877Z,59.30
2018-05-03T19:06:46.171Z,59.70
2018-05-03T19:09:15.431Z,60.40
2018-05-03T19:11:45.787Z,62.30
2018-05-03T19:14:15.084Z,62.20
2018-05-03T19:16:44.415Z,63.00
2018-05-03T19:19:15.205Z,62.60
2018-05-03T19:21:44.480Z,62.60
2018-05-03T19:24:14.521Z,63.10
2018-05-03T19:26:43.842Z,63.10
2018-05-03T19:29:13.129Z,65.80
2018-05-03T19:31:42.757Z,65.70
2018-05-03T19:34:12.049Z,67.20
2018-05-03T19:36:41.332Z,67.20
2018-05-03T19:39:14.733Z,68.00
2018-05-03T19:41:44.781Z,69.70
2018-05-03T19:44:14.129Z,69.60
2018-05-03T19:46:43.324Z,71.00
2018-05-03T19:49:13.374Z,70.80
2018-05-03T19:51:46.524Z,70.80
2018-05-03T19:54:15.795Z,72.20
2018-05-03T19:56:45.081Z,73.60
2018-05-03T19:59:14.505Z,74.10
2018-05-03T20:01:43.773Z,74.90
2018-05-03T20:04:19.053Z,75.60
2018-05-03T20:06:48.337Z,77.20
2018-05-03T20:09:17.609Z,77.80
2018-05-03T20:11:46.905Z,79.30
2018-05-03T20:14:16.174Z,79.90
2018-05-03T20:16:46.225Z,81.20
2018-05-03T20:19:15.505Z,81.20
2018-05-03T20:21:45.532Z,83.40
2018-05-03T20:24:14.803Z,83.20
2018-05-03T20:26:44.876Z,84.00
2018-05-03T20:29:14.219Z,83.90
2018-05-03T20:31:43.544Z,84.70
2018-05-03T20:34:13.580Z,85.70
2018-05-03T20:36:42.966Z,85.60
2018-05-03T20:39:12.257Z,82.60
2018-05-03T20:41:41.531Z,82.40
2018-05-03T20:44:10.823Z,82.90
2018-05-03T20:46:40.092Z,81.50
2018-05-03T20:49:09.360Z,80.40
2018-05-03T20:51:39.409Z,76.10
2018-05-03T20:54:08.665Z,76.10
2018-05-03T20:56:42.618Z,73.70
2018-05-03T20:59:11.858Z,73.70
2018-05-03T21:01:45.608Z,73.10
2018-05-03T21:04:14.940Z,72.60
2018-05-03T21:06:44.216Z,71.00
2018-05-03T21:09:14.214Z,69.40
2018-05-03T21:11:43.560Z,68.80
2018-05-03T21:14:12.853Z,68.50
2018-05-03T21:16:42.125Z,68.70
2018-05-03T21:19:11.379Z,67.90
2018-05-03T21:21:40.845Z,67.30
2018-05-03T21:24:10.162Z,67.40
2018-05-03T21:26:39.415Z,67.40
2018-05-03T21:29:09.432Z,66.30
2018-05-03T21:31:39.448Z,66.40
2018-05-03T21:34:08.733Z,66.40
2018-05-03T21:36:38.968Z,66.40
2018-05-03T21:39:08.226Z,66.40
2018-05-03T21:41:37.573Z,66.30
2018-05-03T21:44:06.775Z,66.50
2018-05-03T21:46:36.041Z,66.50
2018-05-03T21:49:05.352Z,66.40
2018-05-03T21:51:34.601Z,66.50
2018-05-03T21:54:03.883Z,66.00
2018-05-03T21:56:33.149Z,66.00
2018-05-03T21:59:02.432Z,66.20
2018-05-03T22:01:31.758Z,65.90
2018-05-03T22:04:01.810Z,65.90
2018-05-03T22:06:31.066Z,65.80
2018-05-03T22:09:00.338Z,65.60
2018-05-03T22:11:29.624Z,65.80
2018-05-03T22:13:58.948Z,66.40
2018-05-03T22:16:28.188Z,66.50
2018-05-03T22:18:58.305Z,66.20
2018-05-03T22:21:28.354Z,66.30
2018-05-03T22:23:57.613Z,66.30
2018-05-03T22:26:27.647Z,66.90
2018-05-03T22:28:56.957Z,66.90
2018-05-03T22:31:26.225Z,66.70
2018-05-03T22:33:56.298Z,66.80
2018-05-03T22:36:25.970Z,66.80
2018-05-03T22:38:55.985Z,67.10
2018-05-03T22:41:25.857Z,67.20
2018-05-03T22:43:55.117Z,67.00
2018-05-03T22:46:28.667Z,66.80
2018-05-03T22:48:57.936Z,67.20
2018-05-03T22:51:27.185Z,67.50
2018-05-03T22:53:56.514Z,67.30
2018-05-03T22:56:25.774Z,67.00
2018-05-03T22:58:55.072Z,67.70
2018-05-03T23:01:25.849Z,67.60
2018-05-03T23:03:55.141Z,67.50
2018-05-03T23:06:24.466Z,67.70
2018-05-03T23:08:53.741Z,67.90
2018-05-03T23:11:23.010Z,67.60
2018-05-03T23:13:52.271Z,67.20
2018-05-03T23:16:21.535Z,68.00
2018-05-03T23:18:51.578Z,67.70
2018-05-03T23:21:20.926Z,67.70
2018-05-03T23:23:50.190Z,67.40
2018-05-03T23:26:19.447Z,67.30
2018-05-03T23:28:49.510Z,68.20
2018-05-03T23:31:18.739Z,68.20
2018-05-03T23:33:48.026Z,68.30
2018-05-03T23:36:17.321Z,68.20
2018-05-03T23:38:46.593Z,68.00
2018-05-03T23:41:15.925Z,68.20
2018-05-03T23:43:45.287Z,67.70
2018-05-03T23:46:14.576Z,68.10
2018-05-03T23:48:44.600Z,68.10
2018-05-03T23:51:14.776Z,67.60
2018-05-03T23:53:44.072Z,67.50
2018-05-03T23:56:13.341Z,68.10
2018-05-03T23:58:42.598Z,67.60
